createdAt,value
2023-07-19T00:00:29.197Z,19.5
2023-07-19T00:01:34.269Z,19.4
2023-07-19T00:02:38.839Z,19.5
2023-07-19T00:03:43.700Z,19.4
2023-07-19T00:04:48.592Z,19.4
2023-07-19T00:05:53.406Z,19.4
2023-07-19T00:06:58.227Z,19.3
2023-07-19T00:08:02.975Z,19.3
2023-07-19T00:09:08.010Z,19.3
2023-07-19T00:10:12.899Z,19.3
2023-07-19T00:11:17.961Z,19.2
2023-07-19T00:12:24.165Z,19.2
2023-07-19T00:13:28.827Z,19.3
2023-07-19T00:14:33.624Z,19.4
2023-07-19T00:15:38.349Z,19.4
2023-07-19T00:16:43.145Z,19.4
2023-07-19T00:17:47.919Z,19.4
2023-07-19T00:18:59.804Z,19.4
2023-07-19T00:19:58.523Z,19.5
2023-07-19T00:21:03.273Z,19.4
2023-07-19T00:22:08.080Z,19.5
2023-07-19T00:23:12.856Z,19.5
2023-07-19T00:24:17.511Z,19.5
2023-07-19T00:25:22.407Z,19.4
2023-07-19T00:26:27.074Z,19.4
2023-07-19T00:27:31.844Z,19.4
2023-07-19T00:28:36.597Z,19.4
2023-07-19T00:29:41.321Z,19.4
2023-07-19T00:30:46.168Z,19.4
2023-07-19T00:31:50.892Z,19.4
2023-07-19T00:32:55.772Z,19.4
2023-07-19T00:34:00.625Z,19.4
2023-07-19T00:35:05.455Z,19.2
2023-07-19T00:36:10.782Z,19.2
2023-07-19T00:37:15.589Z,19.3
2023-07-19T00:38:20.331Z,19.3
2023-07-19T00:39:25.052Z,19.2
2023-07-19T00:40:29.904Z,19.3
2023-07-19T00:41:34.678Z,19.3
2023-07-19T00:42:39.349Z,19.3
2023-07-19T00:43:44.128Z,19.3
2023-07-19T00:44:48.852Z,19.4
2023-07-19T00:45:53.749Z,19.3
2023-07-19T00:46:58.491Z,19.3
2023-07-19T00:48:03.894Z,19.3
2023-07-19T00:49:08.689Z,19.3
2023-07-19T00:50:13.595Z,19.2
2023-07-19T00:51:18.470Z,19.2
2023-07-19T00:52:23.064Z,19.1
2023-07-19T00:53:27.818Z,19.2
2023-07-19T00:54:32.609Z,19.2
2023-07-19T00:55:37.417Z,19.2
2023-07-19T00:56:42.096Z,19.3
2023-07-19T00:57:47.954Z,19.3
2023-07-19T00:58:52.681Z,19.3
2023-07-19T00:59:57.451Z,19.3
2023-07-19T01:01:02.167Z,19.3
2023-07-19T01:02:07.133Z,19.3
2023-07-19T01:03:12.026Z,19.3
2023-07-19T01:04:16.769Z,19.3
2023-07-19T01:05:21.591Z,19.2
2023-07-19T01:06:26.319Z,19.1
2023-07-19T01:07:31.117Z,19.1
2023-07-19T01:08:35.849Z,19.1
2023-07-19T01:09:40.654Z,19.1
2023-07-19T01:10:45.408Z,19.2
2023-07-19T01:11:50.183Z,19.2
2023-07-19T01:12:54.963Z,19.2
2023-07-19T01:14:07.622Z,19.2
2023-07-19T01:15:12.343Z,19.3
2023-07-19T01:16:17.142Z,19.3
2023-07-19T01:17:21.936Z,19.2
2023-07-19T01:18:26.768Z,19.2
2023-07-19T01:19:32.505Z,19.2
2023-07-19T01:20:38.068Z,19.2
2023-07-19T01:21:43.913Z,19
2023-07-19T01:22:48.643Z,19.1
2023-07-19T01:23:53.424Z,19.1
2023-07-19T01:24:59.243Z,19.1
2023-07-19T01:26:03.899Z,19.1
2023-07-19T01:27:21.187Z,19.1
2023-07-19T01:28:13.966Z,19.1
2023-07-19T01:29:19.017Z,19.1
2023-07-19T01:30:23.723Z,19.1
2023-07-19T01:31:29.726Z,19
2023-07-19T01:32:34.349Z,19.1
2023-07-19T01:33:39.103Z,19.1
2023-07-19T01:34:43.851Z,19.2
2023-07-19T01:35:48.612Z,19.1
2023-07-19T01:36:53.489Z,19.1
2023-07-19T01:37:58.120Z,19.2
2023-07-19T01:39:02.913Z,19.2
2023-07-19T01:40:07.706Z,19.2
2023-07-19T01:41:12.497Z,19.2
2023-07-19T01:42:17.209Z,19.2
2023-07-19T01:43:22.043Z,19.3
2023-07-19T01:44:26.801Z,19.2
2023-07-19T01:45:31.786Z,19.2
2023-07-19T01:46:37.740Z,19.2
2023-07-19T01:47:43.589Z,19.1
2023-07-19T01:48:48.409Z,19
2023-07-19T01:49:53.183Z,19.1
2023-07-19T01:50:57.924Z,19
2023-07-19T01:52:03.094Z,19
2023-07-19T01:53:08.054Z,19.1
2023-07-19T01:54:12.989Z,19
2023-07-19T01:55:17.816Z,19.1
2023-07-19T01:56:22.569Z,19.1
2023-07-19T01:57:27.710Z,19
2023-07-19T01:58:37.757Z,19.1
2023-07-19T01:59:43.469Z,19.1
2023-07-19T02:00:48.354Z,19
2023-07-19T02:01:53.043Z,19
2023-07-19T02:02:57.820Z,19
2023-07-19T02:04:02.723Z,19
2023-07-19T02:05:09.671Z,19
2023-07-19T02:06:14.385Z,19
2023-07-19T02:07:19.327Z,19
2023-07-19T02:08:24.950Z,19
2023-07-19T02:09:29.746Z,19
2023-07-19T02:10:34.570Z,19
2023-07-19T02:11:39.346Z,19.1
2023-07-19T02:12:44.068Z,19.1
2023-07-19T02:13:48.996Z,19.1
2023-07-19T02:14:53.806Z,19.1
2023-07-19T02:15:58.662Z,19
2023-07-19T02:17:03.426Z,19
2023-07-19T02:18:11.030Z,19
2023-07-19T02:19:15.993Z,19
2023-07-19T02:20:21.183Z,18.9
2023-07-19T02:21:25.993Z,18.9
2023-07-19T02:22:30.879Z,18.9
2023-07-19T02:23:35.670Z,18.9
2023-07-19T02:24:40.327Z,18.9
2023-07-19T02:25:45.097Z,19
2023-07-19T02:26:52.665Z,19
2023-07-19T02:27:57.477Z,19
2023-07-19T02:29:02.186Z,18.9
2023-07-19T02:30:07.011Z,18.9
2023-07-19T02:31:12.028Z,18.9
2023-07-19T02:32:17.780Z,18.9
2023-07-19T02:33:22.719Z,18.9
2023-07-19T02:34:27.340Z,18.9
2023-07-19T02:35:32.071Z,18.9
2023-07-19T02:36:36.970Z,18.9
2023-07-19T02:37:41.669Z,18.9
2023-07-19T02:38:46.425Z,18.9
2023-07-19T02:39:51.195Z,18.8
2023-07-19T02:40:55.924Z,18.8
2023-07-19T02:42:00.724Z,18.8
2023-07-19T02:43:05.803Z,18.8
2023-07-19T02:44:10.515Z,18.8
2023-07-19T02:45:15.293Z,18.9
2023-07-19T02:46:20.140Z,18.9
2023-07-19T02:47:25.866Z,18.8
2023-07-19T02:48:30.677Z,18.9
2023-07-19T02:49:36.208Z,18.9
2023-07-19T02:50:40.119Z,18.9
2023-07-19T02:51:47.746Z,18.9
2023-07-19T02:52:52.554Z,18.9
2023-07-19T02:53:57.255Z,19
2023-07-19T02:55:02.329Z,19
2023-07-19T02:56:07.422Z,19
2023-07-19T02:57:12.036Z,18.9
2023-07-19T02:58:16.834Z,18.9
2023-07-19T02:59:21.663Z,18.9
2023-07-19T03:00:27.452Z,18.9
2023-07-19T03:01:32.197Z,18.9
2023-07-19T03:02:36.964Z,18.9
2023-07-19T03:03:41.787Z,18.8
2023-07-19T03:04:46.743Z,18.8
2023-07-19T03:05:52.622Z,18.9
2023-07-19T03:07:00.304Z,18.9
2023-07-19T03:08:05.290Z,18.8
2023-07-19T03:09:10.175Z,18.8
2023-07-19T03:10:15.548Z,18.9
2023-07-19T03:11:20.535Z,18.9
2023-07-19T03:12:25.010Z,18.9
2023-07-19T03:13:29.731Z,18.9
2023-07-19T03:14:34.507Z,18.9
2023-07-19T03:15:39.329Z,18.9
2023-07-19T03:16:44.114Z,18.9
2023-07-19T03:17:48.884Z,18.9
2023-07-19T03:18:53.582Z,18.9
2023-07-19T03:19:59.441Z,18.8
2023-07-19T03:21:04.381Z,18.8
2023-07-19T03:22:09.176Z,18.8
2023-07-19T03:23:13.993Z,18.8
2023-07-19T03:24:18.796Z,18.7
2023-07-19T03:25:23.447Z,18.8
2023-07-19T03:26:28.272Z,18.8
2023-07-19T03:27:33.058Z,18.8
2023-07-19T03:28:37.737Z,18.8
2023-07-19T03:29:42.537Z,18.8
2023-07-19T03:30:47.329Z,18.8
2023-07-19T03:31:52.099Z,18.8
2023-07-19T03:32:56.989Z,18.8
2023-07-19T03:34:02.756Z,18.8
2023-07-19T03:35:07.418Z,18.8
2023-07-19T03:36:12.220Z,18.8
2023-07-19T03:37:17.081Z,18.8
2023-07-19T03:38:21.776Z,18.8
2023-07-19T03:39:27.817Z,18.8
2023-07-19T03:40:33.612Z,18.8
2023-07-19T03:41:38.346Z,18.8
2023-07-19T03:42:43.128Z,18.8
2023-07-19T03:43:48.021Z,18.7
2023-07-19T03:44:52.905Z,18.7
2023-07-19T03:45:57.769Z,18.8
2023-07-19T03:47:02.458Z,18.8
2023-07-19T03:48:07.306Z,18.8
2023-07-19T03:49:12.328Z,18.8
2023-07-19T03:50:18.654Z,18.8
2023-07-19T03:51:23.746Z,18.8
2023-07-19T03:52:28.393Z,18.8
2023-07-19T03:53:33.124Z,18.8
2023-07-19T03:54:37.931Z,18.9
2023-07-19T03:55:43.905Z,18.9
2023-07-19T03:56:48.712Z,18.9
2023-07-19T03:57:53.781Z,18.9
2023-07-19T03:58:58.609Z,19
2023-07-19T04:00:03.633Z,19
2023-07-19T04:01:08.849Z,19
2023-07-19T04:02:15.129Z,19
2023-07-19T04:03:19.930Z,19
2023-07-19T04:04:24.730Z,19
2023-07-19T04:05:29.424Z,19
2023-07-19T04:06:34.201Z,19.1
2023-07-19T04:07:38.973Z,19.1
2023-07-19T04:08:43.826Z,19.1
2023-07-19T04:09:49.517Z,19.1
2023-07-19T04:10:55.271Z,19
2023-07-19T04:12:00.578Z,19
2023-07-19T04:13:05.334Z,19.1
2023-07-19T04:14:10.112Z,19.1
2023-07-19T04:15:14.984Z,19.1
2023-07-19T04:16:20.677Z,19.1
2023-07-19T04:17:26.585Z,19.2
2023-07-19T04:18:31.748Z,19.2
2023-07-19T04:19:36.739Z,19.2
2023-07-19T04:20:41.520Z,19.2
2023-07-19T04:21:46.536Z,19.2
2023-07-19T04:22:51.373Z,19.2
2023-07-19T04:23:57.730Z,19.2
2023-07-19T04:25:01.131Z,19.2
2023-07-19T04:26:05.898Z,19.2
2023-07-19T04:27:11.741Z,19.2
2023-07-19T04:28:16.513Z,19.3
2023-07-19T04:29:22.228Z,19.3
2023-07-19T04:30:26.983Z,19.3
2023-07-19T04:31:31.973Z,19.4
2023-07-19T04:32:37.931Z,19.4
2023-07-19T04:33:42.665Z,19.4
2023-07-19T04:34:47.445Z,19.4
2023-07-19T04:35:52.348Z,19.4
2023-07-19T04:36:57.554Z,19.4
2023-07-19T04:38:02.588Z,19.3
2023-07-19T04:39:08.738Z,19.2
2023-07-19T04:40:13.503Z,19.3
2023-07-19T04:41:20.673Z,19.2
2023-07-19T04:42:25.090Z,19.2
2023-07-19T04:43:29.841Z,19.2
2023-07-19T04:44:34.823Z,19.2
2023-07-19T04:45:39.662Z,19.2
2023-07-19T04:46:47.240Z,19.3
2023-07-19T04:47:52.039Z,19.3
2023-07-19T04:48:56.752Z,19.4
2023-07-19T04:50:01.613Z,19.4
2023-07-19T04:51:06.334Z,19.4
2023-07-19T04:52:11.077Z,19.4
2023-07-19T04:53:15.824Z,19.4
2023-07-19T04:54:21.966Z,19.4
2023-07-19T04:55:26.635Z,19.5
2023-07-19T04:56:31.433Z,19.4
2023-07-19T04:57:36.544Z,19.4
2023-07-19T04:58:41.230Z,19.2
2023-07-19T04:59:45.989Z,19.2
2023-07-19T05:00:50.811Z,19.3
2023-07-19T05:01:55.658Z,19.3
2023-07-19T05:03:01.632Z,19.3
2023-07-19T05:04:09.560Z,19.4
2023-07-19T05:05:11.784Z,19.4
2023-07-19T05:06:16.372Z,19.4
2023-07-19T05:07:21.280Z,19.5
2023-07-19T05:08:26.201Z,19.6
2023-07-19T05:09:30.963Z,19.7
2023-07-19T05:10:35.759Z,19.7
2023-07-19T05:11:40.454Z,19.7
2023-07-19T05:12:45.254Z,19.8
2023-07-19T05:13:51.800Z,19.7
2023-07-19T05:14:55.820Z,19.5
2023-07-19T05:16:00.776Z,19.5
2023-07-19T05:17:05.740Z,19.6
2023-07-19T05:18:10.415Z,19.7
2023-07-19T05:19:15.453Z,19.7
2023-07-19T05:20:20.139Z,19.7
2023-07-19T05:21:24.908Z,19.8
2023-07-19T05:22:29.756Z,19.8
2023-07-19T05:23:34.483Z,19.8
2023-07-19T05:24:39.486Z,19.8
2023-07-19T05:25:44.341Z,19.8
2023-07-19T05:26:49.009Z,19.9
2023-07-19T05:27:53.744Z,19.9
2023-07-19T05:28:58.629Z,20
2023-07-19T05:30:03.312Z,20
2023-07-19T05:31:08.656Z,20
2023-07-19T05:32:13.456Z,20
2023-07-19T05:33:18.130Z,20.1
2023-07-19T05:34:23.731Z,20.1
2023-07-19T05:35:29.745Z,20.1
2023-07-19T05:36:34.442Z,20.1
2023-07-19T05:37:39.249Z,20.1
2023-07-19T05:38:44.255Z,20.2
2023-07-19T05:39:51.549Z,20.2
2023-07-19T05:40:56.410Z,20.3
2023-07-19T05:42:04.042Z,20.4
2023-07-19T05:43:09.056Z,20.4
2023-07-19T05:44:13.793Z,20.4
2023-07-19T05:45:18.557Z,20.5
2023-07-19T05:46:23.478Z,20.4
2023-07-19T05:47:29.973Z,20.5
2023-07-19T05:48:34.104Z,20.5
2023-07-19T05:49:38.937Z,20.5
2023-07-19T05:50:43.679Z,20.5
2023-07-19T05:51:48.452Z,20.5
2023-07-19T05:52:53.320Z,20.6
2023-07-19T05:53:58.222Z,20.6
2023-07-19T05:55:05.634Z,20.6
2023-07-19T05:56:08.047Z,20.6
2023-07-19T05:57:13.051Z,20.4
2023-07-19T05:58:17.838Z,20.4
2023-07-19T05:59:25.851Z,20.6
2023-07-19T06:00:30.780Z,20.7
2023-07-19T06:01:35.666Z,20.8
2023-07-19T06:02:53.246Z,20.8
2023-07-19T06:03:45.033Z,20.9
2023-07-19T06:04:49.947Z,20.9
2023-07-19T06:05:54.584Z,20.9
2023-07-19T06:06:59.332Z,21
2023-07-19T06:08:14.234Z,21.1
2023-07-19T06:09:09.064Z,21.1
2023-07-19T06:10:13.915Z,21.1
2023-07-19T06:11:18.754Z,21.2
2023-07-19T06:12:23.424Z,21.2
2023-07-19T06:13:29.188Z,21.2
2023-07-19T06:14:34.123Z,21.2
2023-07-19T06:15:39.195Z,21.2
2023-07-19T06:16:45.370Z,21.4
2023-07-19T06:17:50.178Z,21.4
2023-07-19T06:18:58.433Z,21.6
2023-07-19T06:20:02.725Z,21.7
2023-07-19T06:21:08.749Z,21.7
2023-07-19T06:22:13.594Z,21.8
2023-07-19T06:23:20.604Z,21.9
2023-07-19T06:24:25.389Z,21.5
2023-07-19T06:25:30.434Z,21.8
2023-07-19T06:26:35.371Z,21.9
2023-07-19T06:27:40.156Z,21.9
2023-07-19T06:28:44.896Z,22.1
2023-07-19T06:29:49.948Z,22
2023-07-19T06:30:54.773Z,22.2
2023-07-19T06:32:00.815Z,22.3
2023-07-19T06:33:06.609Z,22.3
2023-07-19T06:34:10.310Z,22.5
2023-07-19T06:35:15.024Z,22.6
2023-07-19T06:36:19.793Z,22.3
2023-07-19T06:37:24.690Z,22.2
2023-07-19T06:38:29.656Z,22.3
2023-07-19T06:39:35.394Z,22.4
2023-07-19T06:40:40.246Z,22.4
2023-07-19T06:41:44.904Z,22.5
2023-07-19T06:42:52.499Z,22.6
2023-07-19T06:43:57.272Z,22.7
2023-07-19T06:45:02.086Z,22.7
2023-07-19T06:46:08.476Z,22.6
2023-07-19T06:47:11.925Z,22.7
2023-07-19T06:48:16.616Z,22.7
2023-07-19T06:49:22.452Z,22.8
2023-07-19T06:50:27.387Z,22.9
2023-07-19T06:51:32.279Z,22.9
2023-07-19T06:52:36.971Z,23
2023-07-19T06:53:41.788Z,22.9
2023-07-19T06:54:46.507Z,22.8
2023-07-19T06:55:53.218Z,23
2023-07-19T06:56:57.145Z,23.1
2023-07-19T06:58:02.876Z,23.2
2023-07-19T06:59:07.584Z,23.3
2023-07-19T07:00:12.440Z,23.3
2023-07-19T07:01:17.447Z,23.5
2023-07-19T07:02:22.206Z,23.5
2023-07-19T07:03:26.994Z,23.5
2023-07-19T07:04:31.730Z,23.6
2023-07-19T07:05:36.574Z,23.7
2023-07-19T07:06:41.286Z,23.6
2023-07-19T07:07:46.010Z,23.6
2023-07-19T07:08:51.068Z,23.5
2023-07-19T07:09:55.844Z,23.5
2023-07-19T07:11:00.636Z,23.6
2023-07-19T07:12:05.403Z,23.6
2023-07-19T07:13:10.597Z,23.7
2023-07-19T07:14:16.424Z,23.8
2023-07-19T07:15:21.296Z,23.9
2023-07-19T07:16:26.213Z,24
2023-07-19T07:17:31.190Z,24.1
2023-07-19T07:18:37.237Z,24.2
2023-07-19T07:19:42.073Z,24.2
2023-07-19T07:20:47.828Z,23.8
2023-07-19T07:21:53.532Z,23.8
2023-07-19T07:22:58.394Z,24
2023-07-19T07:24:03.180Z,24.1
2023-07-19T07:25:08.305Z,24.2
2023-07-19T07:26:13.257Z,24.2
2023-07-19T07:27:17.943Z,24.3
2023-07-19T07:28:22.804Z,24.3
2023-07-19T07:29:27.470Z,24.5
2023-07-19T07:30:32.283Z,23.9
2023-07-19T07:31:37.232Z,24.1
2023-07-19T07:32:42.277Z,24.4
2023-07-19T07:33:47.135Z,24.5
2023-07-19T07:34:51.958Z,24.5
2023-07-19T07:35:56.884Z,24.6
2023-07-19T07:37:01.892Z,24.5
2023-07-19T07:38:06.984Z,24.5
2023-07-19T07:39:11.879Z,24.3
2023-07-19T07:40:16.939Z,24.3
2023-07-19T07:41:22.390Z,24.3
2023-07-19T07:42:27.040Z,24.5
2023-07-19T07:43:31.901Z,24.7
2023-07-19T07:44:36.933Z,24.8
2023-07-19T07:45:42.027Z,24.8
2023-07-19T07:46:47.113Z,25
2023-07-19T07:47:53.234Z,24.9
2023-07-19T07:48:57.960Z,24.8
2023-07-19T07:50:02.798Z,24.9
2023-07-19T07:51:07.818Z,24.9
2023-07-19T07:52:12.575Z,24.9
2023-07-19T07:53:17.448Z,24.7
2023-07-19T07:54:22.354Z,24.9
2023-07-19T07:55:27.121Z,25
2023-07-19T07:56:31.958Z,25.1
2023-07-19T07:57:36.618Z,24.9
2023-07-19T07:58:41.374Z,24.9
2023-07-19T07:59:46.119Z,25
2023-07-19T08:00:52.020Z,25.2
2023-07-19T08:01:56.893Z,25.1
2023-07-19T08:03:01.880Z,25.1
2023-07-19T08:04:06.818Z,25
2023-07-19T08:05:11.534Z,24.8
2023-07-19T08:06:16.279Z,24.9
2023-07-19T08:07:21.162Z,25
2023-07-19T08:08:25.964Z,25.2
2023-07-19T08:09:30.920Z,25.4
2023-07-19T08:10:35.638Z,25.4
2023-07-19T08:11:40.639Z,25.1
2023-07-19T08:12:45.403Z,25.2
2023-07-19T08:13:50.198Z,25.2
2023-07-19T08:14:55.037Z,25.5
2023-07-19T08:15:59.752Z,25.4
2023-07-19T08:17:04.593Z,25.7
2023-07-19T08:18:09.372Z,25.7
2023-07-19T08:19:14.008Z,25.7
2023-07-19T08:20:18.798Z,25.9
2023-07-19T08:21:34.559Z,25.9
2023-07-19T08:22:28.429Z,26
2023-07-19T08:23:34.075Z,26.1
2023-07-19T08:24:38.921Z,26
2023-07-19T08:25:43.917Z,26.1
2023-07-19T08:26:48.902Z,26
2023-07-19T08:27:53.732Z,26.1
2023-07-19T08:28:58.523Z,26
2023-07-19T08:30:03.373Z,26.1
2023-07-19T08:31:11.392Z,26.2
2023-07-19T08:32:17.152Z,26
2023-07-19T08:33:21.918Z,26
2023-07-19T08:34:26.838Z,26.3
2023-07-19T08:35:31.682Z,26.4
2023-07-19T08:36:36.528Z,26.3
2023-07-19T08:37:41.218Z,26.4
2023-07-19T08:38:47.326Z,26.6
2023-07-19T08:39:52.057Z,26.7
2023-07-19T08:40:56.839Z,26.6
2023-07-19T08:42:04.483Z,26.6
2023-07-19T08:43:09.490Z,26.6
2023-07-19T08:44:14.428Z,26.6
2023-07-19T08:45:19.180Z,26.6
2023-07-19T08:46:25.243Z,26.6
2023-07-19T08:47:31.121Z,26.4
2023-07-19T08:48:35.811Z,26.4
2023-07-19T08:49:40.620Z,26.5
2023-07-19T08:50:45.973Z,26.7
2023-07-19T08:51:50.620Z,26.5
2023-07-19T08:52:55.466Z,26.5
2023-07-19T08:54:00.186Z,26.6
2023-07-19T08:55:04.907Z,26.7
2023-07-19T08:56:09.738Z,26.8
2023-07-19T08:57:17.217Z,26.9
2023-07-19T08:58:23.563Z,27
2023-07-19T08:59:29.454Z,26.9
2023-07-19T09:00:34.157Z,27
2023-07-19T09:01:38.978Z,27
2023-07-19T09:02:44.189Z,27.1
2023-07-19T09:03:49.098Z,27.2
2023-07-19T09:04:53.943Z,26.9
2023-07-19T09:06:09.031Z,27
2023-07-19T09:07:13.780Z,27.3
2023-07-19T09:08:18.563Z,27.3
2023-07-19T09:09:23.366Z,26.8
2023-07-19T09:10:29.097Z,27
2023-07-19T09:11:33.956Z,27.3
2023-07-19T09:12:38.768Z,26.9
2023-07-19T09:13:45.862Z,26.7
2023-07-19T09:14:50.723Z,27
2023-07-19T09:15:55.563Z,27.3
2023-07-19T09:17:03.786Z,27.4
2023-07-19T09:18:11.011Z,27.3
2023-07-19T09:19:15.726Z,27
2023-07-19T09:20:20.522Z,27.1
2023-07-19T09:21:26.546Z,27.2
2023-07-19T09:22:41.530Z,27.3
2023-07-19T09:23:46.332Z,27.2
2023-07-19T09:24:51.053Z,27.1
2023-07-19T09:26:01.093Z,26.9
2023-07-19T09:27:06.352Z,27
2023-07-19T09:28:11.407Z,27.2
2023-07-19T09:29:16.270Z,27.4
2023-07-19T09:30:21.086Z,27.4
2023-07-19T09:31:26.302Z,27.6
2023-07-19T09:32:31.430Z,27.3
2023-07-19T09:33:36.779Z,27.2
2023-07-19T09:34:42.899Z,27.4
2023-07-19T09:35:47.791Z,27.5
2023-07-19T09:36:53.638Z,27.3
2023-07-19T09:37:58.782Z,27.4
2023-07-19T09:39:04.143Z,27.6
2023-07-19T09:40:11.302Z,27.8
2023-07-19T09:41:16.220Z,27.7
2023-07-19T09:42:22.134Z,27.7
2023-07-19T09:43:27.094Z,27.6
2023-07-19T09:44:33.160Z,27.3
2023-07-19T09:45:38.221Z,27.4
2023-07-19T09:46:46.329Z,27.7
2023-07-19T09:47:55.237Z,27.8
2023-07-19T09:49:03.291Z,28
2023-07-19T09:50:09.218Z,28
2023-07-19T09:51:13.981Z,27.9
2023-07-19T09:52:21.958Z,27.8
2023-07-19T09:53:26.873Z,28.1
2023-07-19T09:54:31.733Z,28.2
2023-07-19T09:55:36.559Z,28.2
2023-07-19T09:56:42.692Z,28.2
2023-07-19T09:57:47.820Z,28.3
2023-07-19T09:58:55.764Z,28.4
2023-07-19T10:00:00.553Z,28.4
2023-07-19T10:01:05.360Z,27.8
2023-07-19T10:02:10.113Z,27.9
2023-07-19T10:03:18.209Z,28
2023-07-19T10:04:21.989Z,28.2
2023-07-19T10:05:35.010Z,28.3
2023-07-19T10:06:39.978Z,28.4
2023-07-19T10:07:51.366Z,28.5
2023-07-19T10:08:49.464Z,28.7
2023-07-19T10:09:54.305Z,28.6
2023-07-19T10:11:04.771Z,28.6
2023-07-19T10:12:09.615Z,28.4
2023-07-19T10:13:19.550Z,28.4
2023-07-19T10:14:33.482Z,28.6
2023-07-19T10:15:29.219Z,28.7
2023-07-19T10:16:34.150Z,28.8
2023-07-19T10:17:39.298Z,28.9
2023-07-19T10:18:48.970Z,29
2023-07-19T10:20:04.286Z,28.9
2023-07-19T10:21:15.422Z,28.9
2023-07-19T10:22:20.731Z,28.8
2023-07-19T10:23:25.593Z,28.8
2023-07-19T10:24:30.472Z,28.7
2023-07-19T10:25:36.535Z,28.7
2023-07-19T10:26:41.300Z,28.8
2023-07-19T10:27:46.500Z,28.7
2023-07-19T10:28:56.513Z,28.8
2023-07-19T10:30:04.197Z,28.5
2023-07-19T10:32:14.145Z,28.4
2023-07-19T10:33:22.342Z,28.4
2023-07-19T10:34:34.398Z,28.6
2023-07-19T10:35:32.231Z,28.7
2023-07-19T10:36:38.252Z,28.8
2023-07-19T10:37:52.175Z,28.7
2023-07-19T10:38:55.930Z,28.6
2023-07-19T10:40:01.030Z,28.8
2023-07-19T10:41:05.824Z,29.2
2023-07-19T10:42:10.605Z,29.3
2023-07-19T10:43:22.413Z,29.4
2023-07-19T10:44:22.479Z,29.3
2023-07-19T10:45:30.147Z,29.3
2023-07-19T10:46:34.808Z,29.2
2023-07-19T10:47:39.561Z,29.3
2023-07-19T10:48:44.631Z,29.4
2023-07-19T10:49:52.603Z,29.3
2023-07-19T10:50:57.648Z,29.4
2023-07-19T10:52:05.302Z,29.5
2023-07-19T10:53:10.543Z,29.2
2023-07-19T10:54:15.319Z,29.1
2023-07-19T10:55:38.650Z,28.6
2023-07-19T10:56:25.899Z,28.8
2023-07-19T10:57:30.670Z,29.2
2023-07-19T10:58:35.464Z,29.3
2023-07-19T10:59:40.310Z,29.1
2023-07-19T11:00:45.601Z,29.3
2023-07-19T11:01:50.382Z,29.5
2023-07-19T11:02:55.422Z,29.7
2023-07-19T11:04:00.252Z,29.4
2023-07-19T11:05:10.707Z,29.3
2023-07-19T11:06:15.574Z,29.4
2023-07-19T11:07:20.493Z,29.3
2023-07-19T11:08:25.624Z,29.2
2023-07-19T11:09:32.216Z,29.3
2023-07-19T11:10:37.815Z,29.3
2023-07-19T11:11:42.908Z,29.6
2023-07-19T11:12:47.866Z,29.5
2023-07-19T11:13:52.677Z,29.6
2023-07-19T11:14:57.454Z,29.8
2023-07-19T11:16:02.551Z,29.9
2023-07-19T11:17:07.501Z,29.9
2023-07-19T11:18:12.287Z,29.9
2023-07-19T11:19:17.390Z,29.6
2023-07-19T11:20:22.350Z,29.4
2023-07-19T11:21:32.172Z,29.1
2023-07-19T11:22:37.007Z,29.4
2023-07-19T11:23:41.787Z,29.6
2023-07-19T11:24:47.459Z,29.6
2023-07-19T11:25:55.613Z,29.6
2023-07-19T11:27:05.556Z,29.8
2023-07-19T11:28:14.620Z,29.9
2023-07-19T11:29:31.065Z,29.8
2023-07-19T11:30:39.528Z,29.9
2023-07-19T11:31:47.461Z,29.7
2023-07-19T11:32:52.206Z,29.4
2023-07-19T11:34:02.131Z,29.5
2023-07-19T11:35:18.704Z,29.4
2023-07-19T11:36:23.352Z,29
2023-07-19T11:37:31.076Z,29.2
2023-07-19T11:38:35.697Z,29.5
2023-07-19T11:39:40.441Z,29.5
2023-07-19T11:40:45.257Z,29
2023-07-19T11:41:50.159Z,29
2023-07-19T11:42:54.718Z,29.1
2023-07-19T11:43:59.635Z,28.4
2023-07-19T11:45:04.574Z,28.7
2023-07-19T11:46:15.228Z,28.9
2023-07-19T11:47:20.042Z,29
2023-07-19T11:48:25.810Z,29.2
2023-07-19T11:49:29.634Z,29.1
2023-07-19T11:50:34.327Z,29.1
2023-07-19T11:51:39.020Z,28.9
2023-07-19T11:52:43.816Z,29.2
2023-07-19T11:53:51.515Z,29.2
2023-07-19T11:54:56.615Z,29.3
2023-07-19T11:56:03.126Z,29.3
2023-07-19T11:57:07.562Z,29.3
2023-07-19T11:58:12.335Z,29.4
2023-07-19T11:59:18.093Z,29.3
2023-07-19T12:00:22.795Z,29.1
2023-07-19T12:01:27.840Z,29.1
2023-07-19T12:02:32.644Z,29.1
2023-07-19T12:03:37.468Z,29.2
2023-07-19T12:04:42.196Z,29.3
2023-07-19T12:05:47.172Z,29.4
2023-07-19T12:06:52.081Z,29.3
2023-07-19T12:07:56.985Z,29.3
2023-07-19T12:09:01.782Z,29.3
2023-07-19T12:10:06.580Z,29.6
2023-07-19T12:11:12.001Z,29.6
2023-07-19T12:12:16.880Z,29.7
2023-07-19T12:13:21.932Z,29.8
2023-07-19T12:14:28.980Z,29.4
2023-07-19T12:15:32.416Z,29.5
2023-07-19T12:16:37.399Z,29.7
2023-07-19T12:17:42.234Z,29.8
2023-07-19T12:18:47.789Z,29.9
2023-07-19T12:19:52.661Z,30
2023-07-19T12:20:57.769Z,30
2023-07-19T12:22:14.024Z,29.6
2023-07-19T12:23:07.706Z,29.3
2023-07-19T12:24:12.583Z,29.5
2023-07-19T12:25:18.980Z,29.3
2023-07-19T12:27:29.052Z,29.2
2023-07-19T12:28:33.803Z,29.5
2023-07-19T12:29:52.666Z,29.7
2023-07-19T12:30:44.637Z,29.8
2023-07-19T12:31:49.280Z,29.7
2023-07-19T12:32:54.263Z,29.7
2023-07-19T12:33:59.429Z,29.5
2023-07-19T12:35:07.581Z,29.4
2023-07-19T12:36:12.745Z,29.6
2023-07-19T12:37:17.451Z,29.7
2023-07-19T12:38:22.251Z,29.6
2023-07-19T12:39:27.047Z,29.2
2023-07-19T12:40:31.855Z,28.8
2023-07-19T12:41:38.177Z,28.6
2023-07-19T12:42:41.423Z,28.7
2023-07-19T12:43:46.077Z,29
2023-07-19T12:44:51.003Z,29
2023-07-19T12:45:55.989Z,29.3
2023-07-19T12:47:00.935Z,29.4
2023-07-19T12:48:05.834Z,29.7
2023-07-19T12:49:10.528Z,29.7
2023-07-19T12:50:15.192Z,29.4
2023-07-19T12:51:20.068Z,29.6
2023-07-19T12:52:26.367Z,29.4
2023-07-19T12:53:29.507Z,29.5
2023-07-19T12:54:34.371Z,29.1
2023-07-19T12:55:39.359Z,29.2
2023-07-19T12:56:44.299Z,29.1
2023-07-19T12:57:49.109Z,29.3
2023-07-19T12:58:53.867Z,29.5
2023-07-19T12:59:58.793Z,29.6
2023-07-19T13:01:03.774Z,29.6
2023-07-19T13:02:09.765Z,29.7
2023-07-19T13:03:14.842Z,29.8
2023-07-19T13:04:19.486Z,29.7
2023-07-19T13:05:24.304Z,29.6
2023-07-19T13:06:29.175Z,29.4
2023-07-19T13:07:34.031Z,29.3
2023-07-19T13:08:38.957Z,29.2
2023-07-19T13:09:43.931Z,29.1
2023-07-19T13:10:48.654Z,28.8
2023-07-19T13:11:53.426Z,28.4
2023-07-19T13:12:58.249Z,28.5
2023-07-19T13:14:03.020Z,28.5
2023-07-19T13:15:10.546Z,28.4
2023-07-19T13:16:15.653Z,28.6
2023-07-19T13:17:22.596Z,28.8
2023-07-19T13:18:26.185Z,28.9
2023-07-19T13:19:33.697Z,29.1
2023-07-19T13:20:35.999Z,29.1
2023-07-19T13:21:42.012Z,29.2
2023-07-19T13:22:48.301Z,29.2
2023-07-19T13:23:54.358Z,29.2
2023-07-19T13:24:58.375Z,29
2023-07-19T13:26:03.393Z,29.1
2023-07-19T13:27:08.080Z,29.2
2023-07-19T13:28:12.969Z,29.2
2023-07-19T13:29:19.045Z,29.2
2023-07-19T13:30:25.177Z,29.2
2023-07-19T13:31:29.179Z,29.2
2023-07-19T13:32:33.912Z,29.3
2023-07-19T13:33:38.626Z,29.3
2023-07-19T13:34:44.153Z,29.3
2023-07-19T13:36:54.820Z,29.4
2023-07-19T13:39:03.735Z,29.5
2023-07-19T13:40:09.782Z,29.5
2023-07-19T13:41:14.830Z,29.6
2023-07-19T13:42:19.823Z,29.5
2023-07-19T13:43:25.209Z,29.6
2023-07-19T13:44:30.095Z,29.5
2023-07-19T13:45:35.124Z,29.2
2023-07-19T13:46:39.837Z,29.4
2023-07-19T13:47:47.849Z,29.4
2023-07-19T13:48:52.935Z,29.3
2023-07-19T13:50:00.142Z,29.3
2023-07-19T13:51:07.095Z,29.3
2023-07-19T13:52:12.132Z,29.2
2023-07-19T13:53:16.972Z,29.3
2023-07-19T13:54:21.699Z,29.5
2023-07-19T13:55:26.371Z,29.5
2023-07-19T13:56:31.241Z,29.6
2023-07-19T13:57:36.218Z,29.6
2023-07-19T13:58:41.219Z,29.5
2023-07-19T13:59:46.032Z,29.4
2023-07-19T14:00:50.745Z,29.5
2023-07-19T14:01:55.576Z,29.7
2023-07-19T14:03:00.538Z,29.8
2023-07-19T14:04:05.416Z,29.6
2023-07-19T14:05:10.899Z,29.4
2023-07-19T14:06:15.469Z,29.6
2023-07-19T14:07:20.244Z,29.7
2023-07-19T14:08:24.926Z,29.7
2023-07-19T14:09:29.812Z,29.6
2023-07-19T14:10:34.511Z,29.3
2023-07-19T14:11:40.330Z,29.4
2023-07-19T14:12:45.235Z,29.6
2023-07-19T14:14:54.813Z,29.6
2023-07-19T14:17:04.337Z,29.8
2023-07-19T14:18:09.411Z,30
2023-07-19T14:19:16.764Z,29.9
2023-07-19T14:20:19.295Z,29.9
2023-07-19T14:21:24.148Z,29.9
2023-07-19T14:22:30.004Z,29.8
2023-07-19T14:23:34.900Z,29.9
2023-07-19T14:24:41.515Z,29.9
2023-07-19T14:25:45.566Z,30
2023-07-19T14:26:50.596Z,30.1
2023-07-19T14:27:56.359Z,30
2023-07-19T14:29:01.109Z,29.6
2023-07-19T14:30:06.132Z,29.7
2023-07-19T14:31:14.431Z,29.7
2023-07-19T14:32:17.803Z,29.7
2023-07-19T14:33:22.527Z,29.7
2023-07-19T14:34:27.294Z,29.5
2023-07-19T14:35:35.057Z,29.5
2023-07-19T14:36:39.938Z,29.8
2023-07-19T14:37:44.649Z,30
2023-07-19T14:38:49.363Z,30
2023-07-19T14:39:54.155Z,29.8
2023-07-19T14:41:00.045Z,29.7
2023-07-19T14:42:04.766Z,29.7